sensor_id;sensor_type;location;lat;lon;timestamp;P1;durP1;ratioP1;P2;durP2;ratioP2
64799;SDS011;51233;51.982;4.594;2023-04-25T00:01:05;3.45;;;1.63;;
64799;SDS011;51233;51.982;4.594;2023-04-25T00:04:05;6.00;;;1.63;;
64799;SDS011;51233;51.982;4.594;2023-04-25T00:07:05;3.22;;;1.05;;
64799;SDS011;51233;51.982;4.594;2023-04-25T00:10:06;9.40;;;2.00;;
64799;SDS011;51233;51.982;4.594;2023-04-25T00:13:06;4.77;;;1.90;;
64799;SDS011;51233;51.982;4.594;2023-04-25T00:16:11;5.43;;;1.50;;
64799;SDS011;51233;51.982;4.594;2023-04-25T00:19:13;3.97;;;1.75;;
64799;SDS011;51233;51.982;4.594;2023-04-25T00:22:13;4.00;;;1.48;;
64799;SDS011;51233;51.982;4.594;2023-04-25T00:25:13;5.33;;;1.70;;
64799;SDS011;51233;51.982;4.594;2023-04-25T00:28:14;3.95;;;1.80;;
64799;SDS011;51233;51.982;4.594;2023-04-25T00:31:14;4.30;;;2.00;;
64799;SDS011;51233;51.982;4.594;2023-04-25T00:34:15;4.65;;;1.83;;
64799;SDS011;51233;51.982;4.594;2023-04-25T00:37:15;4.30;;;1.62;;
64799;SDS011;51233;51.982;4.594;2023-04-25T00:40:15;9.80;;;2.20;;
64799;SDS011;51233;51.982;4.594;2023-04-25T00:43:15;4.07;;;1.40;;
64799;SDS011;51233;51.982;4.594;2023-04-25T00:46:19;4.13;;;1.35;;
64799;SDS011;51233;51.982;4.594;2023-04-25T00:49:19;5.70;;;1.80;;
64799;SDS011;51233;51.982;4.594;2023-04-25T00:52:19;7.38;;;2.20;;
64799;SDS011;51233;51.982;4.594;2023-04-25T00:55:20;6.93;;;1.97;;
64799;SDS011;51233;51.982;4.594;2023-04-25T00:58:23;4.50;;;1.63;;
64799;SDS011;51233;51.982;4.594;2023-04-25T01:01:23;3.85;;;1.83;;
64799;SDS011;51233;51.982;4.594;2023-04-25T01:04:23;2.23;;;1.33;;
64799;SDS011;51233;51.982;4.594;2023-04-25T01:07:24;4.65;;;1.80;;
64799;SDS011;51233;51.982;4.594;2023-04-25T01:10:24;4.03;;;1.77;;
64799;SDS011;51233;51.982;4.594;2023-04-25T01:13:24;8.73;;;2.43;;
64799;SDS011;51233;51.982;4.594;2023-04-25T01:16:24;5.85;;;1.80;;
64799;SDS011;51233;51.982;4.594;2023-04-25T01:19:25;5.33;;;2.20;;
64799;SDS011;51233;51.982;4.594;2023-04-25T01:22:25;9.20;;;2.10;;
64799;SDS011;51233;51.982;4.594;2023-04-25T01:25:25;9.65;;;2.38;;
64799;SDS011;51233;51.982;4.594;2023-04-25T01:28:26;6.03;;;1.87;;
64799;SDS011;51233;51.982;4.594;2023-04-25T01:31:26;4.25;;;1.52;;
64799;SDS011;51233;51.982;4.594;2023-04-25T01:34:27;5.27;;;1.90;;
64799;SDS011;51233;51.982;4.594;2023-04-25T01:37:27;5.30;;;1.92;;
64799;SDS011;51233;51.982;4.594;2023-04-25T01:40:27;3.43;;;1.50;;
64799;SDS011;51233;51.982;4.594;2023-04-25T01:43:37;3.38;;;1.58;;
64799;SDS011;51233;51.982;4.594;2023-04-25T01:46:37;3.00;;;1.38;;
64799;SDS011;51233;51.982;4.594;2023-04-25T01:49:37;2.08;;;1.17;;
64799;SDS011;51233;51.982;4.594;2023-04-25T01:52:37;2.43;;;1.23;;
64799;SDS011;51233;51.982;4.594;2023-04-25T01:55:38;2.37;;;1.10;;
64799;SDS011;51233;51.982;4.594;2023-04-25T01:58:38;4.87;;;1.30;;
64799;SDS011;51233;51.982;4.594;2023-04-25T02:01:38;2.73;;;1.33;;
64799;SDS011;51233;51.982;4.594;2023-04-25T02:04:38;1.65;;;0.85;;
64799;SDS011;51233;51.982;4.594;2023-04-25T02:07:41;2.97;;;1.20;;
64799;SDS011;51233;51.982;4.594;2023-04-25T02:10:41;2.17;;;0.90;;
64799;SDS011;51233;51.982;4.594;2023-04-25T02:13:42;2.10;;;0.93;;
64799;SDS011;51233;51.982;4.594;2023-04-25T02:16:42;5.80;;;1.40;;
64799;SDS011;51233;51.982;4.594;2023-04-25T02:19:43;1.25;;;1.05;;
64799;SDS011;51233;51.982;4.594;2023-04-25T02:22:44;1.30;;;0.90;;
64799;SDS011;51233;51.982;4.594;2023-04-25T02:25:44;2.63;;;0.90;;
64799;SDS011;51233;51.982;4.594;2023-04-25T02:28:45;1.30;;;1.10;;
64799;SDS011;51233;51.982;4.594;2023-04-25T02:31:45;2.28;;;1.20;;
64799;SDS011;51233;51.982;4.594;2023-04-25T02:34:45;3.30;;;1.10;;
64799;SDS011;51233;51.982;4.594;2023-04-25T02:37:45;4.60;;;1.30;;
64799;SDS011;51233;51.982;4.594;2023-04-25T02:40:45;6.53;;;1.70;;
64799;SDS011;51233;51.982;4.594;2023-04-25T02:43:46;2.72;;;1.40;;
64799;SDS011;51233;51.982;4.594;2023-04-25T02:46:46;7.63;;;2.20;;
64799;SDS011;51233;51.982;4.594;2023-04-25T02:49:46;5.38;;;1.60;;
64799;SDS011;51233;51.982;4.594;2023-04-25T02:52:46;6.47;;;1.73;;
64799;SDS011;51233;51.982;4.594;2023-04-25T02:55:46;2.38;;;1.30;;
64799;SDS011;51233;51.982;4.594;2023-04-25T02:58:46;1.20;;;0.90;;
64799;SDS011;51233;51.982;4.594;2023-04-25T03:01:47;5.95;;;1.40;;
64799;SDS011;51233;51.982;4.594;2023-04-25T03:04:47;5.63;;;1.33;;
64799;SDS011;51233;51.982;4.594;2023-04-25T03:07:47;2.00;;;1.03;;
64799;SDS011;51233;51.982;4.594;2023-04-25T03:10:48;0.65;;;0.30;;
64799;SDS011;51233;51.982;4.594;2023-04-25T03:16:50;0.35;;;0.35;;
64799;SDS011;51233;51.982;4.594;2023-04-25T03:19:50;4.35;;;1.20;;
64799;SDS011;51233;51.982;4.594;2023-04-25T03:22:50;3.30;;;1.20;;
64799;SDS011;51233;51.982;4.594;2023-04-25T03:25:50;1.70;;;0.98;;
64799;SDS011;51233;51.982;4.594;2023-04-25T03:28:50;1.50;;;1.13;;
64799;SDS011;51233;51.982;4.594;2023-04-25T03:31:50;3.60;;;0.90;;
64799;SDS011;51233;51.982;4.594;2023-04-25T03:34:51;1.42;;;0.63;;
64799;SDS011;51233;51.982;4.594;2023-04-25T03:37:51;0.82;;;0.50;;
64799;SDS011;51233;51.982;4.594;2023-04-25T03:40:51;1.13;;;0.70;;
64799;SDS011;51233;51.982;4.594;2023-04-25T03:43:51;2.27;;;0.97;;
64799;SDS011;51233;51.982;4.594;2023-04-25T03:46:51;1.23;;;0.90;;
64799;SDS011;51233;51.982;4.594;2023-04-25T03:49:52;0.70;;;0.70;;
64799;SDS011;51233;51.982;4.594;2023-04-25T03:52:52;0.80;;;0.80;;
64799;SDS011;51233;51.982;4.594;2023-04-25T03:55:52;0.98;;;0.73;;
64799;SDS011;51233;51.982;4.594;2023-04-25T03:58:52;2.05;;;0.80;;
64799;SDS011;51233;51.982;4.594;2023-04-25T04:01:52;1.67;;;1.00;;
64799;SDS011;51233;51.982;4.594;2023-04-25T04:04:53;1.28;;;0.50;;
64799;SDS011;51233;51.982;4.594;2023-04-25T04:07:53;1.15;;;0.63;;
64799;SDS011;51233;51.982;4.594;2023-04-25T04:10:53;1.33;;;0.80;;
64799;SDS011;51233;51.982;4.594;2023-04-25T04:13:53;2.08;;;1.10;;
64799;SDS011;51233;51.982;4.594;2023-04-25T04:16:54;2.23;;;1.20;;
64799;SDS011;51233;51.982;4.594;2023-04-25T04:19:54;2.15;;;1.00;;
64799;SDS011;51233;51.982;4.594;2023-04-25T04:22:54;2.80;;;0.97;;
64799;SDS011;51233;51.982;4.594;2023-04-25T04:25:58;4.03;;;1.17;;
64799;SDS011;51233;51.982;4.594;2023-04-25T04:28:58;1.98;;;1.15;;
64799;SDS011;51233;51.982;4.594;2023-04-25T04:31:59;1.45;;;1.08;;
64799;SDS011;51233;51.982;4.594;2023-04-25T04:35:01;3.08;;;0.98;;
64799;SDS011;51233;51.982;4.594;2023-04-25T04:38:01;3.70;;;1.02;;
64799;SDS011;51233;51.982;4.594;2023-04-25T04:41:01;1.33;;;1.00;;
64799;SDS011;51233;51.982;4.594;2023-04-25T04:44:07;3.20;;;1.05;;
64799;SDS011;51233;51.982;4.594;2023-04-25T04:47:08;3.20;;;1.00;;
64799;SDS011;51233;51.982;4.594;2023-04-25T04:50:10;1.67;;;0.80;;
64799;SDS011;51233;51.982;4.594;2023-04-25T04:53:10;1.05;;;0.65;;
64799;SDS011;51233;51.982;4.594;2023-04-25T04:56:11;1.73;;;0.67;;
64799;SDS011;51233;51.982;4.594;2023-04-25T04:59:11;0.65;;;0.50;;
64799;SDS011;51233;51.982;4.594;2023-04-25T05:02:12;1.10;;;0.70;;
64799;SDS011;51233;51.982;4.594;2023-04-25T05:05:12;1.05;;;0.85;;
64799;SDS011;51233;51.982;4.594;2023-04-25T05:08:12;4.90;;;0.83;;
64799;SDS011;51233;51.982;4.594;2023-04-25T05:11:13;1.25;;;0.90;;
64799;SDS011;51233;51.982;4.594;2023-04-25T05:14:13;2.40;;;0.90;;
64799;SDS011;51233;51.982;4.594;2023-04-25T05:17:13;3.65;;;1.23;;
64799;SDS011;51233;51.982;4.594;2023-04-25T05:20:13;0.93;;;0.87;;
64799;SDS011;51233;51.982;4.594;2023-04-25T05:23:14;1.58;;;1.00;;
64799;SDS011;51233;51.982;4.594;2023-04-25T05:26:14;1.93;;;1.03;;
64799;SDS011;51233;51.982;4.594;2023-04-25T05:29:14;3.90;;;1.30;;
64799;SDS011;51233;51.982;4.594;2023-04-25T05:32:14;5.97;;;1.00;;
64799;SDS011;51233;51.982;4.594;2023-04-25T05:35:14;2.13;;;1.00;;
64799;SDS011;51233;51.982;4.594;2023-04-25T05:38:15;1.77;;;1.00;;
64799;SDS011;51233;51.982;4.594;2023-04-25T05:41:15;1.23;;;0.90;;
64799;SDS011;51233;51.982;4.594;2023-04-25T05:44:15;9.98;;;1.75;;
64799;SDS011;51233;51.982;4.594;2023-04-25T05:47:15;3.00;;;0.77;;
64799;SDS011;51233;51.982;4.594;2023-04-25T05:50:16;1.30;;;0.77;;
64799;SDS011;51233;51.982;4.594;2023-04-25T05:53:16;3.28;;;0.85;;
64799;SDS011;51233;51.982;4.594;2023-04-25T05:56:16;5.23;;;0.70;;
64799;SDS011;51233;51.982;4.594;2023-04-25T05:59:19;8.20;;;2.00;;
64799;SDS011;51233;51.982;4.594;2023-04-25T06:02:20;0.38;;;0.30;;
64799;SDS011;51233;51.982;4.594;2023-04-25T06:05:23;0.47;;;0.40;;
64799;SDS011;51233;51.982;4.594;2023-04-25T06:08:23;5.45;;;1.38;;
64799;SDS011;51233;51.982;4.594;2023-04-25T06:11:23;1.45;;;0.85;;
64799;SDS011;51233;51.982;4.594;2023-04-25T06:14:23;0.40;;;0.40;;
64799;SDS011;51233;51.982;4.594;2023-04-25T06:17:23;1.60;;;0.90;;
64799;SDS011;51233;51.982;4.594;2023-04-25T06:20:24;1.27;;;0.60;;
64799;SDS011;51233;51.982;4.594;2023-04-25T06:23:24;1.13;;;0.40;;
64799;SDS011;51233;51.982;4.594;2023-04-25T06:26:24;0.63;;;0.63;;
64799;SDS011;51233;51.982;4.594;2023-04-25T06:29:27;1.73;;;0.60;;
64799;SDS011;51233;51.982;4.594;2023-04-25T06:32:28;0.55;;;0.40;;
64799;SDS011;51233;51.982;4.594;2023-04-25T06:35:29;1.92;;;0.80;;
64799;SDS011;51233;51.982;4.594;2023-04-25T06:38:30;1.30;;;0.70;;
64799;SDS011;51233;51.982;4.594;2023-04-25T06:41:31;1.15;;;0.73;;
64799;SDS011;51233;51.982;4.594;2023-04-25T06:44:31;1.93;;;0.60;;
64799;SDS011;51233;51.982;4.594;2023-04-25T06:47:31;1.77;;;1.08;;
64799;SDS011;51233;51.982;4.594;2023-04-25T06:50:31;1.90;;;0.95;;
64799;SDS011;51233;51.982;4.594;2023-04-25T06:53:31;2.40;;;0.70;;
64799;SDS011;51233;51.982;4.594;2023-04-25T06:56:31;1.15;;;0.70;;
64799;SDS011;51233;51.982;4.594;2023-04-25T06:59:32;1.30;;;0.90;;
64799;SDS011;51233;51.982;4.594;2023-04-25T07:02:32;2.43;;;0.93;;
64799;SDS011;51233;51.982;4.594;2023-04-25T07:05:32;3.97;;;1.33;;
64799;SDS011;51233;51.982;4.594;2023-04-25T07:08:33;3.17;;;1.20;;
64799;SDS011;51233;51.982;4.594;2023-04-25T07:11:33;2.80;;;1.00;;
64799;SDS011;51233;51.982;4.594;2023-04-25T07:14:33;3.05;;;0.95;;
64799;SDS011;51233;51.982;4.594;2023-04-25T07:17:33;2.90;;;0.90;;
64799;SDS011;51233;51.982;4.594;2023-04-25T07:20:34;2.47;;;1.00;;
64799;SDS011;51233;51.982;4.594;2023-04-25T07:23:34;4.43;;;1.13;;
64799;SDS011;51233;51.982;4.594;2023-04-25T07:26:34;2.77;;;1.00;;
64799;SDS011;51233;51.982;4.594;2023-04-25T07:29:38;1.50;;;0.90;;
64799;SDS011;51233;51.982;4.594;2023-04-25T07:32:38;5.07;;;1.33;;
64799;SDS011;51233;51.982;4.594;2023-04-25T07:35:39;3.03;;;1.10;;
64799;SDS011;51233;51.982;4.594;2023-04-25T07:38:39;2.83;;;1.15;;
64799;SDS011;51233;51.982;4.594;2023-04-25T07:41:39;3.88;;;1.10;;
64799;SDS011;51233;51.982;4.594;2023-04-25T07:44:40;4.88;;;1.05;;
64799;SDS011;51233;51.982;4.594;2023-04-25T07:47:40;3.40;;;0.63;;
64799;SDS011;51233;51.982;4.594;2023-04-25T07:50:41;0.68;;;0.35;;
64799;SDS011;51233;51.982;4.594;2023-04-25T07:53:41;5.43;;;1.27;;
64799;SDS011;51233;51.982;4.594;2023-04-25T07:56:41;3.23;;;1.00;;
64799;SDS011;51233;51.982;4.594;2023-04-25T07:59:41;0.30;;;0.30;;
64799;SDS011;51233;51.982;4.594;2023-04-25T08:02:42;0.60;;;0.60;;
64799;SDS011;51233;51.982;4.594;2023-04-25T08:05:42;0.45;;;0.45;;
64799;SDS011;51233;51.982;4.594;2023-04-25T08:08:42;0.60;;;0.60;;
64799;SDS011;51233;51.982;4.594;2023-04-25T08:11:42;1.33;;;0.60;;
64799;SDS011;51233;51.982;4.594;2023-04-25T08:14:43;5.20;;;0.90;;
64799;SDS011;51233;51.982;4.594;2023-04-25T08:17:43;4.93;;;1.20;;
64799;SDS011;51233;51.982;4.594;2023-04-25T08:20:43;0.50;;;0.50;;
64799;SDS011;51233;51.982;4.594;2023-04-25T08:23:44;0.40;;;0.40;;
64799;SDS011;51233;51.982;4.594;2023-04-25T08:26:44;1.60;;;0.50;;
64799;SDS011;51233;51.982;4.594;2023-04-25T08:29:44;1.08;;;0.60;;
64799;SDS011;51233;51.982;4.594;2023-04-25T08:32:44;2.07;;;0.87;;
64799;SDS011;51233;51.982;4.594;2023-04-25T08:35:44;2.65;;;0.77;;
64799;SDS011;51233;51.982;4.594;2023-04-25T08:38:45;0.50;;;0.50;;
64799;SDS011;51233;51.982;4.594;2023-04-25T08:41:45;0.57;;;0.50;;
64799;SDS011;51233;51.982;4.594;2023-04-25T08:44:45;2.90;;;0.60;;
64799;SDS011;51233;51.982;4.594;2023-04-25T08:47:47;0.63;;;0.52;;
64799;SDS011;51233;51.982;4.594;2023-04-25T08:50:53;0.40;;;0.40;;
64799;SDS011;51233;51.982;4.594;2023-04-25T08:53:54;1.67;;;0.63;;
64799;SDS011;51233;51.982;4.594;2023-04-25T08:56:54;2.67;;;0.38;;
64799;SDS011;51233;51.982;4.594;2023-04-25T08:59:57;1.98;;;0.43;;
64799;SDS011;51233;51.982;4.594;2023-04-25T09:02:58;2.10;;;1.37;;
64799;SDS011;51233;51.982;4.594;2023-04-25T09:05:58;0.73;;;0.63;;
64799;SDS011;51233;51.982;4.594;2023-04-25T09:09:08;2.55;;;0.65;;
64799;SDS011;51233;51.982;4.594;2023-04-25T09:12:10;1.15;;;0.50;;
64799;SDS011;51233;51.982;4.594;2023-04-25T09:15:11;0.35;;;0.20;;
64799;SDS011;51233;51.982;4.594;2023-04-25T09:18:11;1.70;;;0.50;;
64799;SDS011;51233;51.982;4.594;2023-04-25T09:21:12;1.13;;;0.60;;
64799;SDS011;51233;51.982;4.594;2023-04-25T09:24:12;0.50;;;0.50;;
64799;SDS011;51233;51.982;4.594;2023-04-25T09:27:13;1.35;;;0.65;;
64799;SDS011;51233;51.982;4.594;2023-04-25T09:30:17;4.30;;;0.55;;
64799;SDS011;51233;51.982;4.594;2023-04-25T09:33:17;1.80;;;0.90;;
64799;SDS011;51233;51.982;4.594;2023-04-25T09:36:18;1.13;;;0.60;;
64799;SDS011;51233;51.982;4.594;2023-04-25T09:39:28;1.48;;;0.88;;
64799;SDS011;51233;51.982;4.594;2023-04-25T09:42:28;2.00;;;0.70;;
64799;SDS011;51233;51.982;4.594;2023-04-25T09:45:31;1.45;;;0.60;;
64799;SDS011;51233;51.982;4.594;2023-04-25T09:48:31;0.43;;;0.43;;
64799;SDS011;51233;51.982;4.594;2023-04-25T09:51:31;0.80;;;0.80;;
64799;SDS011;51233;51.982;4.594;2023-04-25T09:54:31;1.92;;;0.50;;
64799;SDS011;51233;51.982;4.594;2023-04-25T09:57:32;1.15;;;0.45;;
64799;SDS011;51233;51.982;4.594;2023-04-25T10:00:32;1.30;;;0.80;;
64799;SDS011;51233;51.982;4.594;2023-04-25T10:03:33;0.60;;;0.60;;
64799;SDS011;51233;51.982;4.594;2023-04-25T10:06:34;0.68;;;0.40;;
64799;SDS011;51233;51.982;4.594;2023-04-25T10:09:38;0.60;;;0.53;;
64799;SDS011;51233;51.982;4.594;2023-04-25T10:12:39;0.93;;;0.65;;
64799;SDS011;51233;51.982;4.594;2023-04-25T10:15:40;0.50;;;0.50;;
64799;SDS011;51233;51.982;4.594;2023-04-25T10:18:41;0.33;;;0.20;;
64799;SDS011;51233;51.982;4.594;2023-04-25T10:21:46;3.63;;;1.08;;
64799;SDS011;51233;51.982;4.594;2023-04-25T10:24:48;1.60;;;0.68;;
64799;SDS011;51233;51.982;4.594;2023-04-25T10:27:52;1.15;;;0.70;;
64799;SDS011;51233;51.982;4.594;2023-04-25T10:31:07;1.38;;;0.70;;
64799;SDS011;51233;51.982;4.594;2023-04-25T10:34:08;7.80;;;1.52;;
64799;SDS011;51233;51.982;4.594;2023-04-25T10:37:09;3.28;;;0.98;;
64799;SDS011;51233;51.982;4.594;2023-04-25T10:40:10;4.13;;;1.07;;
64799;SDS011;51233;51.982;4.594;2023-04-25T10:46:30;1.38;;;0.85;;
64799;SDS011;51233;51.982;4.594;2023-04-25T10:52:32;0.43;;;0.37;;
64799;SDS011;51233;51.982;4.594;2023-04-25T10:55:49;3.47;;;1.00;;
64799;SDS011;51233;51.982;4.594;2023-04-25T10:58:49;2.72;;;0.82;;
64799;SDS011;51233;51.982;4.594;2023-04-25T11:01:53;0.87;;;0.57;;
64799;SDS011;51233;51.982;4.594;2023-04-25T11:04:54;3.40;;;0.75;;
64799;SDS011;51233;51.982;4.594;2023-04-25T11:07:55;1.27;;;0.70;;
64799;SDS011;51233;51.982;4.594;2023-04-25T11:10:59;2.65;;;0.70;;
64799;SDS011;51233;51.982;4.594;2023-04-25T11:13:59;2.63;;;0.60;;
64799;SDS011;51233;51.982;4.594;2023-04-25T11:17:00;1.63;;;0.67;;
64799;SDS011;51233;51.982;4.594;2023-04-25T11:20:01;1.45;;;0.75;;
64799;SDS011;51233;51.982;4.594;2023-04-25T11:23:02;0.60;;;0.50;;
64799;SDS011;51233;51.982;4.594;2023-04-25T11:26:03;1.60;;;0.60;;
64799;SDS011;51233;51.982;4.594;2023-04-25T11:29:03;1.33;;;0.60;;
64799;SDS011;51233;51.982;4.594;2023-04-25T11:32:03;1.17;;;0.73;;
64799;SDS011;51233;51.982;4.594;2023-04-25T11:35:04;3.33;;;0.70;;
64799;SDS011;51233;51.982;4.594;2023-04-25T11:41:06;2.83;;;1.00;;
64799;SDS011;51233;51.982;4.594;2023-04-25T11:44:06;2.03;;;0.60;;
64799;SDS011;51233;51.982;4.594;2023-04-25T11:47:06;3.43;;;0.90;;
64799;SDS011;51233;51.982;4.594;2023-04-25T11:50:09;3.03;;;0.60;;
64799;SDS011;51233;51.982;4.594;2023-04-25T11:53:14;5.72;;;0.85;;
64799;SDS011;51233;51.982;4.594;2023-04-25T11:56:14;1.17;;;0.70;;
64799;SDS011;51233;51.982;4.594;2023-04-25T11:59:15;2.17;;;0.73;;
64799;SDS011;51233;51.982;4.594;2023-04-25T12:02:25;3.53;;;1.00;;
64799;SDS011;51233;51.982;4.594;2023-04-25T12:05:27;2.97;;;0.90;;
64799;SDS011;51233;51.982;4.594;2023-04-25T12:08:28;3.85;;;1.10;;
64799;SDS011;51233;51.982;4.594;2023-04-25T12:11:29;0.80;;;0.77;;
64799;SDS011;51233;51.982;4.594;2023-04-25T12:14:30;2.05;;;0.85;;
64799;SDS011;51233;51.982;4.594;2023-04-25T12:17:31;3.13;;;0.60;;
64799;SDS011;51233;51.982;4.594;2023-04-25T12:20:33;2.10;;;0.60;;
64799;SDS011;51233;51.982;4.594;2023-04-25T12:23:33;0.93;;;0.57;;
64799;SDS011;51233;51.982;4.594;2023-04-25T12:26:46;2.40;;;1.15;;
64799;SDS011;51233;51.982;4.594;2023-04-25T12:29:53;5.97;;;0.80;;
64799;SDS011;51233;51.982;4.594;2023-04-25T12:32:53;3.22;;;0.88;;
64799;SDS011;51233;51.982;4.594;2023-04-25T12:35:54;2.95;;;1.02;;
64799;SDS011;51233;51.982;4.594;2023-04-25T12:39:03;3.37;;;0.70;;
64799;SDS011;51233;51.982;4.594;2023-04-25T12:42:06;1.40;;;0.68;;
64799;SDS011;51233;51.982;4.594;2023-04-25T12:45:13;3.88;;;0.98;;
64799;SDS011;51233;51.982;4.594;2023-04-25T12:48:20;1.77;;;0.37;;
64799;SDS011;51233;51.982;4.594;2023-04-25T12:51:20;0.90;;;0.60;;
64799;SDS011;51233;51.982;4.594;2023-04-25T12:54:20;4.33;;;0.47;;
64799;SDS011;51233;51.982;4.594;2023-04-25T12:57:20;1.93;;;0.80;;
64799;SDS011;51233;51.982;4.594;2023-04-25T13:00:23;1.58;;;0.70;;
64799;SDS011;51233;51.982;4.594;2023-04-25T13:03:24;5.63;;;1.40;;
64799;SDS011;51233;51.982;4.594;2023-04-25T13:06:25;2.23;;;0.97;;
64799;SDS011;51233;51.982;4.594;2023-04-25T13:09:26;0.20;;;0.20;;
64799;SDS011;51233;51.982;4.594;2023-04-25T13:12:26;3.10;;;1.37;;
64799;SDS011;51233;51.982;4.594;2023-04-25T13:15:26;1.83;;;0.70;;
64799;SDS011;51233;51.982;4.594;2023-04-25T13:18:27;4.03;;;0.80;;
64799;SDS011;51233;51.982;4.594;2023-04-25T13:21:30;0.80;;;0.57;;
64799;SDS011;51233;51.982;4.594;2023-04-25T13:24:32;0.40;;;0.40;;
64799;SDS011;51233;51.982;4.594;2023-04-25T13:27:32;1.77;;;0.55;;
64799;SDS011;51233;51.982;4.594;2023-04-25T13:30:33;1.15;;;0.80;;
64799;SDS011;51233;51.982;4.594;2023-04-25T13:33:37;0.93;;;0.55;;
64799;SDS011;51233;51.982;4.594;2023-04-25T13:36:37;1.70;;;0.77;;
64799;SDS011;51233;51.982;4.594;2023-04-25T13:39:37;2.37;;;0.70;;
64799;SDS011;51233;51.982;4.594;2023-04-25T13:42:37;0.57;;;0.47;;
64799;SDS011;51233;51.982;4.594;2023-04-25T13:45:38;1.33;;;1.23;;
64799;SDS011;51233;51.982;4.594;2023-04-25T13:48:39;0.33;;;0.30;;
64799;SDS011;51233;51.982;4.594;2023-04-25T13:51:46;3.08;;;0.88;;
64799;SDS011;51233;51.982;4.594;2023-04-25T13:54:46;3.95;;;0.75;;
64799;SDS011;51233;51.982;4.594;2023-04-25T13:57:46;1.73;;;0.70;;
64799;SDS011;51233;51.982;4.594;2023-04-25T14:00:46;1.30;;;0.88;;
64799;SDS011;51233;51.982;4.594;2023-04-25T14:03:47;3.83;;;1.20;;
64799;SDS011;51233;51.982;4.594;2023-04-25T14:06:47;2.17;;;0.90;;
64799;SDS011;51233;51.982;4.594;2023-04-25T14:09:47;2.03;;;0.67;;
64799;SDS011;51233;51.982;4.594;2023-04-25T14:12:47;0.20;;;0.20;;
64799;SDS011;51233;51.982;4.594;2023-04-25T14:15:47;1.57;;;0.80;;
64799;SDS011;51233;51.982;4.594;2023-04-25T14:18:48;3.10;;;1.27;;
64799;SDS011;51233;51.982;4.594;2023-04-25T14:21:48;3.33;;;1.20;;
64799;SDS011;51233;51.982;4.594;2023-04-25T14:24:48;6.60;;;1.40;;
64799;SDS011;51233;51.982;4.594;2023-04-25T14:27:51;4.93;;;1.05;;
64799;SDS011;51233;51.982;4.594;2023-04-25T14:30:51;7.13;;;1.23;;
64799;SDS011;51233;51.982;4.594;2023-04-25T14:33:51;1.92;;;0.82;;
64799;SDS011;51233;51.982;4.594;2023-04-25T14:36:51;2.45;;;0.60;;
64799;SDS011;51233;51.982;4.594;2023-04-25T14:39:52;3.10;;;0.80;;
64799;SDS011;51233;51.982;4.594;2023-04-25T14:42:52;1.03;;;0.70;;
64799;SDS011;51233;51.982;4.594;2023-04-25T14:45:53;3.87;;;0.77;;
64799;SDS011;51233;51.982;4.594;2023-04-25T14:48:53;0.33;;;0.33;;
64799;SDS011;51233;51.982;4.594;2023-04-25T14:51:55;1.17;;;0.70;;
64799;SDS011;51233;51.982;4.594;2023-04-25T14:54:55;1.23;;;0.80;;
64799;SDS011;51233;51.982;4.594;2023-04-25T14:57:56;2.17;;;0.90;;
64799;SDS011;51233;51.982;4.594;2023-04-25T15:00:56;1.13;;;0.70;;
64799;SDS011;51233;51.982;4.594;2023-04-25T15:03:56;1.48;;;0.50;;
64799;SDS011;51233;51.982;4.594;2023-04-25T15:06:57;3.33;;;0.77;;
64799;SDS011;51233;51.982;4.594;2023-04-25T15:09:57;5.30;;;1.60;;
64799;SDS011;51233;51.982;4.594;2023-04-25T15:12:57;0.38;;;0.30;;
64799;SDS011;51233;51.982;4.594;2023-04-25T15:15:58;2.00;;;0.70;;
64799;SDS011;51233;51.982;4.594;2023-04-25T15:18:58;0.23;;;0.23;;
64799;SDS011;51233;51.982;4.594;2023-04-25T15:21:58;2.45;;;1.00;;
64799;SDS011;51233;51.982;4.594;2023-04-25T15:25:01;1.55;;;0.40;;
64799;SDS011;51233;51.982;4.594;2023-04-25T15:28:23;4.20;;;1.40;;
64799;SDS011;51233;51.982;4.594;2023-04-25T15:31:22;3.88;;;1.30;;
64799;SDS011;51233;51.982;4.594;2023-04-25T15:34:31;2.28;;;1.13;;
64799;SDS011;51233;51.982;4.594;2023-04-25T15:37:32;4.32;;;1.30;;
64799;SDS011;51233;51.982;4.594;2023-04-25T15:40:32;3.37;;;1.40;;
64799;SDS011;51233;51.982;4.594;2023-04-25T15:43:32;4.87;;;1.33;;
64799;SDS011;51233;51.982;4.594;2023-04-25T15:46:35;3.78;;;1.27;;
64799;SDS011;51233;51.982;4.594;2023-04-25T15:49:35;4.82;;;1.40;;
64799;SDS011;51233;51.982;4.594;2023-04-25T15:52:36;1.83;;;1.00;;
64799;SDS011;51233;51.982;4.594;2023-04-25T15:55:36;1.97;;;0.67;;
64799;SDS011;51233;51.982;4.594;2023-04-25T15:58:36;2.23;;;1.00;;
64799;SDS011;51233;51.982;4.594;2023-04-25T16:01:37;1.25;;;0.70;;
64799;SDS011;51233;51.982;4.594;2023-04-25T16:04:37;0.93;;;0.63;;
64799;SDS011;51233;51.982;4.594;2023-04-25T16:07:38;1.90;;;0.70;;
64799;SDS011;51233;51.982;4.594;2023-04-25T16:10:38;3.23;;;0.50;;
64799;SDS011;51233;51.982;4.594;2023-04-25T16:13:39;4.47;;;1.00;;
64799;SDS011;51233;51.982;4.594;2023-04-25T16:16:39;0.83;;;0.60;;
64799;SDS011;51233;51.982;4.594;2023-04-25T16:19:39;1.23;;;0.70;;
64799;SDS011;51233;51.982;4.594;2023-04-25T16:22:40;0.63;;;0.57;;
64799;SDS011;51233;51.982;4.594;2023-04-25T16:25:40;3.93;;;1.00;;
64799;SDS011;51233;51.982;4.594;2023-04-25T16:28:41;3.38;;;1.05;;
64799;SDS011;51233;51.982;4.594;2023-04-25T16:31:42;2.03;;;0.60;;
64799;SDS011;51233;51.982;4.594;2023-04-25T16:34:42;0.93;;;0.77;;
64799;SDS011;51233;51.982;4.594;2023-04-25T16:37:43;3.60;;;1.00;;
64799;SDS011;51233;51.982;4.594;2023-04-25T16:40:43;2.00;;;0.70;;
64799;SDS011;51233;51.982;4.594;2023-04-25T16:43:43;4.63;;;1.30;;
64799;SDS011;51233;51.982;4.594;2023-04-25T16:46:43;2.10;;;0.83;;
64799;SDS011;51233;51.982;4.594;2023-04-25T16:49:44;3.13;;;1.20;;
64799;SDS011;51233;51.982;4.594;2023-04-25T16:52:44;2.47;;;0.90;;
64799;SDS011;51233;51.982;4.594;2023-04-25T16:55:44;2.10;;;0.68;;
64799;SDS011;51233;51.982;4.594;2023-04-25T16:58:46;6.35;;;1.30;;
64799;SDS011;51233;51.982;4.594;2023-04-25T17:01:46;7.68;;;1.60;;
64799;SDS011;51233;51.982;4.594;2023-04-25T17:04:46;6.03;;;1.97;;
64799;SDS011;51233;51.982;4.594;2023-04-25T17:07:46;6.63;;;1.80;;
64799;SDS011;51233;51.982;4.594;2023-04-25T17:10:47;2.10;;;1.10;;
64799;SDS011;51233;51.982;4.594;2023-04-25T17:13:48;5.13;;;1.50;;
64799;SDS011;51233;51.982;4.594;2023-04-25T17:16:48;4.25;;;1.10;;
64799;SDS011;51233;51.982;4.594;2023-04-25T17:19:48;4.50;;;1.13;;
64799;SDS011;51233;51.982;4.594;2023-04-25T17:22:48;4.28;;;1.48;;
64799;SDS011;51233;51.982;4.594;2023-04-25T17:25:49;4.70;;;1.60;;
64799;SDS011;51233;51.982;4.594;2023-04-25T17:28:49;4.90;;;1.53;;
64799;SDS011;51233;51.982;4.594;2023-04-25T17:31:49;4.17;;;1.40;;
64799;SDS011;51233;51.982;4.594;2023-04-25T17:34:50;3.43;;;1.47;;
64799;SDS011;51233;51.982;4.594;2023-04-25T17:37:51;3.47;;;1.23;;
64799;SDS011;51233;51.982;4.594;2023-04-25T17:40:51;3.47;;;1.30;;
64799;SDS011;51233;51.982;4.594;2023-04-25T17:43:51;5.75;;;1.20;;
64799;SDS011;51233;51.982;4.594;2023-04-25T17:46:51;4.93;;;1.40;;
64799;SDS011;51233;51.982;4.594;2023-04-25T17:49:52;4.00;;;1.20;;
64799;SDS011;51233;51.982;4.594;2023-04-25T17:52:53;4.47;;;1.30;;
64799;SDS011;51233;51.982;4.594;2023-04-25T17:55:53;6.30;;;1.30;;
64799;SDS011;51233;51.982;4.594;2023-04-25T17:58:55;4.93;;;1.55;;
64799;SDS011;51233;51.982;4.594;2023-04-25T18:01:55;3.90;;;1.42;;
64799;SDS011;51233;51.982;4.594;2023-04-25T18:04:57;6.70;;;1.33;;
64799;SDS011;51233;51.982;4.594;2023-04-25T18:07:58;8.83;;;1.60;;
64799;SDS011;51233;51.982;4.594;2023-04-25T18:10:58;7.50;;;1.30;;
64799;SDS011;51233;51.982;4.594;2023-04-25T18:13:58;3.50;;;1.10;;
64799;SDS011;51233;51.982;4.594;2023-04-25T18:16:59;2.33;;;1.17;;
64799;SDS011;51233;51.982;4.594;2023-04-25T18:20:00;6.23;;;1.60;;
64799;SDS011;51233;51.982;4.594;2023-04-25T18:23:00;3.60;;;1.17;;